Terminal Aerodrome Forecast
Issued by NWS Lake Charles, LA

Home | Current Version | Previous Version | Text Only | Print | Product List | Glossary On
Versions: 1 2 3 4 5 6 7 8 9 10 11 12 13 14
000
FTUS44 KLCH 052320
TAFARA
TAF
KARA 052320Z 0600/0624 12005KT P6SM FEW025 SCT040
     FM061000 10003KT P6SM BKN025
     FM061700 14008KT P6SM SCT040=

USA.gov is the U.S. government's official web portal to all federal, state and local government web resources and services.